Time;durP1;ratioP1;P1;durP2;ratioP2;P2;SDS_P1;SDS_P2;PMS_P1;PMS_P2;Temp;Humidity;BMP_temperature;BMP_pressure;BME280_temperature;BME280_humidity;BME280_pressure;Samples;Min_cycle;Max_cycle;Signal;HPM_P1;HPM_P2
2021/11/17 02:27:29;;;;;;;51.92;26.73;;;;;;;-3.13;63.70;101936.44;1770757;81;21146;-69
2021/11/17 02:30:23;;;;;;;51.18;28.05;;;;;;;-3.17;63.57;101932.93;1770281;81;21463;-68
2021/11/17 02:33:13;;;;;;;49.18;27.87;;;;;;;-3.22;63.57;101932.03;1770077;81;21152;-68
2021/11/17 02:35:59;;;;;;;53.23;28.52;;;;;;;-3.26;63.56;101930.62;1780570;80;20931;-68
2021/11/17 02:38:56;;;;;;;53.40;28.95;;;;;;;-3.30;63.49;101927.45;1781187;80;21488;-67
2021/11/17 02:41:58;;;;;;;58.92;31.37;;;;;;;-3.32;63.46;101925.47;1781485;80;21823;-67
2021/11/17 02:44:42;;;;;;;59.10;31.73;;;;;;;-3.38;63.41;101919.46;1781348;80;21472;-68
2021/11/17 02:47:26;;;;;;;64.25;31.07;;;;;;;-3.40;63.44;101925.28;1781003;80;21448;-67
2021/11/17 02:50:30;;;;;;;65.00;32.60;;;;;;;-3.41;63.49;101925.43;1773705;80;21564;-69
2021/11/17 02:53:20;;;;;;;65.08;32.58;;;;;;;-3.42;63.50;101922.45;1781261;80;21040;-68
2021/11/17 02:56:02;;;;;;;68.22;33.28;;;;;;;-3.43;63.54;101921.63;1780734;80;21106;-68
2021/11/17 02:59:04;;;;;;;63.65;31.62;;;;;;;-3.45;63.61;101911.81;1780957;80;21041;-67
2021/11/17 03:02:00;;;;;;;63.00;32.45;;;;;;;-3.45;63.65;101917.03;1781774;80;21559;-68
2021/11/17 03:04:47;;;;;;;60.08;32.20;;;;;;;-3.50;63.72;101910.55;1781199;80;21429;-67
2021/11/17 03:07:36;;;;;;;55.05;30.72;;;;;;;-3.41;63.63;101914.98;1778351;80;21587;-67
2021/11/17 03:10:37;;;;;;;53.42;29.80;;;;;;;-3.32;63.48;101918.12;1769871;81;21774;-69
2021/11/17 03:13:28;;;;;;;55.52;30.50;;;;;;;-3.32;63.39;101922.03;1767828;81;21043;-67
2021/11/17 03:16:19;;;;;;;61.75;31.27;;;;;;;-3.33;63.45;101921.18;1740363;82;21010;-68
2021/11/17 03:18:57;;;;;;;56.63;30.15;;;;;;;-3.35;63.46;101915.28;1738996;82;20964;-66
2021/11/17 03:22:06;;;;;;;55.33;29.60;;;;;;;-3.32;63.50;101914.20;1739100;82;20951;-68
2021/11/17 03:24:44;;;;;;;59.53;31.37;;;;;;;-3.30;63.53;101918.79;1739849;82;21717;-68
2021/11/17 03:27:29;;;;;;;61.58;31.48;;;;;;;-3.27;63.57;101917.22;1754422;81;21023;-68
2021/11/17 03:30:18;;;;;;;64.40;31.77;;;;;;;-3.24;63.60;101917.44;1770436;81;21574;-67
2021/11/17 03:33:01;;;;;;;56.92;30.77;;;;;;;-3.27;63.62;101910.69;1730464;82;21541;-67
2021/11/17 03:35:48;;;;;;;53.90;29.45;;;;;;;-3.23;63.66;101916.47;1738518;82;21141;-67
2021/11/17 03:38:32;;;;;;;59.20;29.92;;;;;;;-3.21;63.65;101915.39;1740068;82;21122;-67
2021/11/17 03:41:11;;;;;;;53.13;27.77;;;;;;;-3.20;63.66;101916.21;1740040;82;20942;-67
2021/11/17 03:44:34;;;;;;;58.38;29.90;;;;;;;-3.18;63.68;101915.61;1764231;81;21542;-67
2021/11/17 03:47:10;;;;;;;;;;;;;;;-3.17;63.71;101912.02;1743100;82;21003;-68
2021/11/17 03:49:51;;;;;;;51.60;27.27;;;;;;;-3.14;63.68;101909.97;1738958;82;20144;-67
2021/11/17 03:52:53;;;;;;;54.45;29.25;;;;;;;-3.15;63.69;101915.34;1739590;82;21437;-67
2021/11/17 03:55:31;;;;;;;52.90;28.77;;;;;;;-3.14;63.69;101915.20;1739853;82;21422;-69
2021/11/17 03:58:21;;;;;;;51.48;28.15;;;;;;;-3.14;63.65;101911.27;1740112;82;21211;-68
2021/11/17 04:01:28;;;;;;;51.85;28.83;;;;;;;-3.13;63.61;101906.39;1739839;81;21433;-67
2021/11/17 04:04:18;;;;;;;54.38;29.15;;;;;;;-3.14;63.60;101902.13;1739355;81;21039;-68
2021/11/17 04:06:59;;;;;;;52.98;29.42;;;;;;;-3.14;63.59;101902.13;1698809;81;21319;-68
2021/11/17 04:09:56;;;;;;;53.80;30.15;;;;;;;-3.15;63.58;101904.89;1740133;82;20951;-68
2021/11/17 04:12:46;;;;;;;53.30;29.10;;;;;;;-3.15;63.56;101902.28;1739881;82;20998;-68
2021/11/17 04:15:51;;;;;;;52.33;30.30;;;;;;;-3.18;63.57;101897.31;1738952;82;21552;-67
2021/11/17 04:18:41;;;;;;;48.55;28.85;;;;;;;-3.19;63.58;101907.40;1738550;82;20932;-69
2021/11/17 04:21:39;;;;;;;56.08;30.50;;;;;;;-3.20;63.57;101899.22;1740231;81;21846;-68
2021/11/17 04:24:11;;;;;;;53.68;29.48;;;;;;;-3.25;63.59;101890.48;1709470;81;21026;-68
2021/11/17 04:26:52;;;;;;;50.65;29.32;;;;;;;-3.27;63.61;101894.19;1695583;82;21002;-69
2021/11/17 04:29:35;;;;;;;50.23;28.92;;;;;;;-3.27;63.62;101894.19;1749182;81;21003;-67
2021/11/17 04:32:37;;;;;;;52.08;30.00;;;;;;;-3.31;63.62;101892.33;1739002;82;21003;-68
2021/11/17 04:35:33;;;;;;;49.93;28.40;;;;;;;-3.33;63.62;101890.31;1762927;81;21514;-69
2021/11/17 04:38:27;;;;;;;47.43;26.85;;;;;;;-3.41;63.66;101887.55;1770601;81;20983;-68
2021/11/17 04:41:07;;;;;;;52.45;30.43;;;;;;;-3.45;63.68;101886.99;1770349;81;20995;-67
2021/11/17 04:44:10;;;;;;;51.58;28.50;;;;;;;-3.49;63.70;101884.28;1769884;81;21729;-68
2021/11/17 04:47:11;;;;;;;48.70;28.65;;;;;;;-3.50;63.72;101887.03;1770656;81;21398;-68
2021/11/17 04:50:00;;;;;;;48.87;28.57;;;;;;;-3.50;63.71;101883.94;1752700;81;21163;-68
2021/11/17 04:52:33;;;;;;;49.80;28.12;;;;;;;-3.48;63.70;101882.52;1739902;81;21057;-68
2021/11/17 04:55:26;;;;;;;52.70;29.55;;;;;;;-3.47;63.66;101881.55;1739795;81;21041;-68
2021/11/17 04:58:09;;;;;;;54.50;29.70;;;;;;;-3.48;63.64;101880.73;1739841;82;21070;-68
2021/11/17 05:01:23;;;;;;;47.95;28.05;;;;;;;-3.49;63.55;101878.23;1740075;82;21530;-68
2021/11/17 05:04:30;;;;;;;50.75;27.65;;;;;;;-3.52;63.53;101881.11;1758809;81;25058;-67
2021/11/17 05:07:44;;;;;;;57.05;29.60;;;;;;;-3.59;63.51;101879.02;1742196;81;20987;-69
2021/11/17 05:10:33;;;;;;;58.35;30.65;;;;;;;-3.60;63.51;101876.06;1727443;83;20984;-68
2021/11/17 05:13:20;;;;;;;53.60;29.12;;;;;;;-3.60;63.44;101873.94;1726587;83;21467;-68
2021/11/17 05:16:01;;;;;;;57.10;30.37;;;;;;;-3.60;63.42;101871.33;1729663;82;21046;-68
2021/11/17 05:18:49;;;;;;;58.40;30.12;;;;;;;-3.63;63.32;101875.02;1758938;81;27725;-67
2021/11/17 05:21:36;;;;;;;53.63;30.05;;;;;;;-3.62;63.31;101874.54;1761825;81;21486;-68
2021/11/17 05:24:13;;;;;;;56.25;30.00;;;;;;;-3.63;63.34;101870.28;1761113;81;21032;-68
2021/11/17 05:27:04;;;;;;;47.30;27.87;;;;;;;-3.63;63.36;101873.72;1761554;81;21459;-68
2021/11/17 05:29:50;;;;;;;48.08;28.67;;;;;;;-3.63;63.42;101872.41;1702956;81;21113;-67
2021/11/17 05:32:57;;;;;;;55.33;29.77;;;;;;;-3.61;63.48;101873.60;1760925;81;21523;-68
2021/11/17 05:36:00;;;;;;;41.33;23.35;;;;;;;-3.62;63.53;101872.78;1761045;81;21078;-68
2021/11/17 05:38:50;;;;;;;51.98;29.20;;;;;;;-3.61;63.55;101880.95;1761694;81;21451;-69
2021/11/17 05:41:34;;;;;;;47.55;26.82;;;;;;;-3.64;63.63;101884.31;1761155;81;21047;-69
2021/11/17 05:44:16;;;;;;;51.00;26.17;;;;;;;-3.64;63.71;101885.13;1761845;81;21443;-68
2021/11/17 05:47:07;;;;;;;50.52;27.32;;;;;;;-3.61;63.79;101887.97;1777570;80;22023;-68
2021/11/17 05:49:48;;;;;;;46.88;25.23;;;;;;;-3.58;63.87;101883.79;1770358;81;21007;-67
2021/11/17 05:52:38;;;;;;;37.93;19.90;;;;;;;-3.55;63.97;101884.83;1769995;81;22198;-67
2021/11/17 05:55:22;;;;;;;51.70;28.32;;;;;;;-3.49;64.03;101886.06;1769954;81;21526;-68
2021/11/17 05:58:03;;;;;;;47.15;26.15;;;;;;;-3.46;64.15;101875.36;1770596;81;21473;-69
2021/11/17 06:00:53;;;;;;;61.80;29.18;;;;;;;-3.40;64.19;101870.91;1770758;81;21125;-67
2021/11/17 06:03:50;;;;;;;50.23;27.93;;;;;;;-3.35;64.23;101866.12;1770871;81;21398;-68
2021/11/17 06:06:18;;;;;;;50.17;27.20;;;;;;;-3.31;64.30;101863.10;1770469;81;21035;-68
2021/11/17 06:08:44;;;;;;;65.08;30.37;;;;;;;-3.26;64.41;101865.30;1770241;81;21003;-68
2021/11/17 06:11:11;;;;;;;51.93;27.33;;;;;;;-3.23;64.50;101860.30;1770059;81;27646;-68
2021/11/17 06:13:37;;;;;;;48.33;26.00;;;;;;;-3.20;64.58;101859.55;1770716;81;21099;-69
2021/11/17 06:16:04;;;;;;;48.33;27.25;;;;;;;-3.15;64.67;101859.98;1742622;81;20991;-69
2021/11/17 06:18:31;;;;;;;48.42;28.47;;;;;;;-3.09;64.75;101858.14;1718068;81;20999;-68
2021/11/17 06:20:58;;;;;;;66.42;35.30;;;;;;;-2.99;64.86;101861.25;1770304;81;20990;-69
2021/11/17 06:23:46;;;;;;;53.78;31.48;;;;;;;-2.91;64.93;101856.15;1770807;81;20959;-68
2021/11/17 06:26:13;;;;;;;55.98;30.15;;;;;;;-2.78;65.00;101848.04;1753076;81;21801;-68
2021/11/17 06:28:40;;;;;;;55.52;30.23;;;;;;;-2.65;65.06;101852.02;1770397;81;21054;-67
2021/11/17 06:31:07;;;;;;;51.15;29.42;;;;;;;-2.51;65.13;101849.46;1742643;81;21003;-67
2021/11/17 06:33:34;;;;;;;45.52;27.52;;;;;;;-2.37;65.21;101850.81;1770269;81;21103;-69
2021/11/17 06:36:01;;;;;;;46.98;26.82;;;;;;;-2.23;65.27;101846.47;1770597;81;21137;-68
2021/11/17 06:38:28;;;;;;;49.65;28.45;;;;;;;-2.07;65.38;101842.41;1770259;81;21140;-69
2021/11/17 06:40:56;;;;;;;46.90;27.60;;;;;;;-1.92;65.43;101850.98;1770514;81;21031;-68
2021/11/17 06:43:23;;;;;;;44.35;26.40;;;;;;;-1.77;65.46;101846.12;1770333;81;20999;-68
2021/11/17 06:45:54;;;;;;;41.18;24.50;;;;;;;-1.66;65.46;101850.34;1770628;81;21031;-69
2021/11/17 06:48:23;;;;;;;45.95;26.60;;;;;;;-1.57;65.50;101853.89;1770818;81;21640;-69
2021/11/17 06:50:53;;;;;;;50.03;27.70;;;;;;;-1.51;65.61;101850.20;1770404;81;21482;-69
2021/11/17 06:53:22;;;;;;;47.73;23.87;;;;;;;-1.39;65.68;101843.44;1770689;81;20924;-69
2021/11/17 06:55:48;;;;;;;44.65;26.33;;;;;;;-1.31;65.70;101845.68;1770539;81;20943;-68
2021/11/17 06:58:15;;;;;;;43.98;26.48;;;;;;;-1.22;65.79;101843.95;1770694;81;21038;-69
2021/11/17 07:00:44;;;;;;;43.02;26.25;;;;;;;-1.11;65.86;101846.38;1770603;81;21482;-69
2021/11/17 07:03:10;;;;;;;44.33;27.00;;;;;;;-0.97;65.94;101847.66;1770762;81;21766;-68
2021/11/17 07:05:38;;;;;;;42.08;27.37;;;;;;;-0.82;66.02;101840.92;1770924;81;20995;-69
2021/11/17 07:08:06;;;;;;;40.90;25.72;;;;;;;-0.66;66.04;101841.53;1771195;81;21000;-68
2021/11/17 07:10:34;;;;;;;42.27;26.17;;;;;;;-0.48;66.13;101837.09;1770401;81;21557;-70
2021/11/17 07:13:01;;;;;;;47.45;28.50;;;;;;;-0.30;66.16;101837.53;1770533;81;21035;-69
2021/11/17 07:15:30;;;;;;;48.25;29.23;;;;;;;-0.14;66.19;101838.13;1770634;81;21177;-69
2021/11/17 07:17:57;;;;;;;44.45;26.37;;;;;;;0.18;66.42;101837.00;1770495;81;21022;-69
2021/11/17 07:20:25;;;;;;;41.33;26.30;;;;;;;0.18;66.42;101837.00;1770665;81;21030;-69
2021/11/17 07:22:51;;;;;;;45.98;28.02;;;;;;;0.60;66.12;101840.63;1770415;81;20959;-69
2021/11/17 07:25:20;;;;;;;46.60;27.17;;;;;;;0.60;66.12;101840.63;1770617;81;20945;-69
2021/11/17 07:27:47;;;;;;;41.50;26.15;;;;;;;0.80;66.06;101845.11;1770214;81;21190;-69
2021/11/17 07:30:20;;;;;;;42.65;26.57;;;;;;;0.97;66.03;101843.34;1770451;81;21164;-69
2021/11/17 07:32:46;;;;;;;;;;;;;;;1.11;66.10;101839.56;1773246;81;21093;-69
2021/11/17 07:35:13;;;;;;;43.35;26.30;;;;;;;1.31;66.04;101839.25;1770681;81;20498;-69
2021/11/17 07:37:40;;;;;;;42.23;26.60;;;;;;;1.47;65.98;101829.22;1770569;81;21041;-69
2021/11/17 07:40:08;;;;;;;44.15;27.98;;;;;;;1.62;65.84;101827.06;1770602;81;21460;-69
2021/11/17 07:42:35;;;;;;;45.95;27.80;;;;;;;1.76;65.77;101832.14;1770403;81;21023;-69
2021/11/17 07:45:03;;;;;;;43.30;27.52;;;;;;;1.90;65.67;101831.95;1770423;81;20983;-69
2021/11/17 07:47:31;;;;;;;36.17;22.52;;;;;;;2.05;65.57;101832.91;1770604;81;20987;-69
2021/11/17 07:50:00;;;;;;;32.38;21.70;;;;;;;2.09;65.43;101823.66;1770764;81;20927;-68
2021/11/17 07:52:27;;;;;;;30.95;20.77;;;;;;;2.14;65.32;101828.44;1770573;81;21139;-69
2021/11/17 07:54:54;;;;;;;34.05;20.40;;;;;;;2.22;65.15;101832.85;1770650;81;21066;-69
2021/11/17 07:57:21;;;;;;;33.53;21.12;;;;;;;2.31;65.01;101827.88;1770422;81;20960;-69
2021/11/17 07:59:47;;;;;;;30.12;19.87;;;;;;;2.40;64.73;101828.65;1756279;81;21584;-69
2021/11/17 08:02:14;;;;;;;28.87;19.67;;;;;;;2.49;64.47;101831.58;1755887;81;20991;-67
2021/11/17 08:04:42;;;;;;;31.87;19.90;;;;;;;2.53;64.20;101827.13;1770646;81;21114;-69
2021/11/17 08:07:13;;;;;;;29.92;19.15;;;;;;;2.61;64.01;101826.75;1770098;81;21510;-69
2021/11/17 08:09:45;;;;;;;29.90;19.25;;;;;;;2.68;63.81;101829.02;1770481;81;21470;-69
2021/11/17 08:12:11;;;;;;;28.95;18.92;;;;;;;2.78;63.62;101823.02;1770289;81;20931;-69
2021/11/17 08:14:39;;;;;;;31.07;19.30;;;;;;;2.87;63.37;101823.80;1770382;81;20995;-69
2021/11/17 08:17:06;;;;;;;31.15;20.17;;;;;;;2.96;63.06;101828.86;1769817;81;21151;-69
2021/11/17 08:19:33;;;;;;;31.75;19.67;;;;;;;3.02;62.88;101824.17;1769768;81;21026;-69
2021/11/17 08:22:06;;;;;;;31.17;19.40;;;;;;;3.10;62.62;101824.62;1770779;81;21082;-69
2021/11/17 08:24:31;;;;;;;32.48;20.75;;;;;;;3.16;62.36;101823.08;1769647;81;21081;-69
2021/11/17 08:26:58;;;;;;;25.80;16.73;;;;;;;3.25;62.18;101822.84;1770680;81;21046;-69
2021/11/17 08:29:26;;;;;;;30.68;19.00;;;;;;;3.31;61.77;101827.10;1770347;81;21499;-68
2021/11/17 08:31:54;;;;;;;31.50;20.02;;;;;;;3.32;61.47;101825.59;1770660;81;20995;-68
2021/11/17 08:34:20;;;;;;;29.72;20.57;;;;;;;3.32;61.19;101825.59;1770006;81;21043;-70
2021/11/17 08:36:47;;;;;;;28.83;19.20;;;;;;;3.39;61.09;101822.59;1770454;81;21443;-67
2021/11/17 08:39:16;;;;;;;29.45;19.37;;;;;;;3.51;60.75;101822.45;1770570;81;21087;-68
2021/11/17 08:41:42;;;;;;;31.42;19.37;;;;;;;3.59;60.61;101817.63;1770207;81;21777;-69
2021/11/17 08:44:11;;;;;;;29.20;18.48;;;;;;;3.70;60.54;101820.31;1770400;81;21074;-69
2021/11/17 08:46:38;;;;;;;28.92;18.27;;;;;;;3.75;59.94;101816.14;1770246;81;21030;-70
2021/11/17 08:49:04;;;;;;;28.60;18.67;;;;;;;3.74;59.81;101809.70;1770974;81;21070;-68
2021/11/17 08:51:31;;;;;;;24.52;17.52;;;;;;;3.75;59.74;101811.33;1770486;81;21046;-68
2021/11/17 08:54:01;;;;;;;27.87;18.87;;;;;;;3.85;59.54;101805.78;1771594;81;21143;-68
2021/11/17 08:56:32;;;;;;;30.15;19.67;;;;;;;3.87;59.19;101808.56;1770322;81;21486;-68
2021/11/17 08:58:58;;;;;;;31.07;20.05;;;;;;;3.92;59.04;101802.25;1770764;81;20939;-68
2021/11/17 09:01:27;;;;;;;28.60;17.40;;;;;;;4.02;58.89;101792.72;1770464;81;21023;-68
2021/11/17 09:03:54;;;;;;;28.83;18.57;;;;;;;4.12;58.68;101791.12;1770654;81;21093;-68
2021/11/17 09:06:22;;;;;;;25.12;17.02;;;;;;;4.17;58.47;101796.66;1770314;81;21132;-70
2021/11/17 09:08:51;;;;;;;22.77;16.05;;;;;;;4.26;58.34;101788.95;1770248;81;21469;-69
2021/11/17 09:11:20;;;;;;;27.80;18.17;;;;;;;4.33;57.78;101785.87;1770317;81;20944;-69
2021/11/17 09:13:50;;;;;;;29.25;17.62;;;;;;;4.36;57.69;101783.38;1770757;81;20999;-67
2021/11/17 09:16:17;;;;;;;24.67;17.07;;;;;;;4.45;57.66;101776.47;1770377;81;21109;-68
2021/11/17 09:18:45;;;;;;;26.25;16.17;;;;;;;4.57;57.41;101777.29;1770453;81;21061;-68
2021/11/17 09:21:14;;;;;;;24.77;14.93;;;;;;;4.61;57.21;101778.58;1770562;81;21007;-68
2021/11/17 09:23:43;;;;;;;20.43;14.00;;;;;;;4.66;57.05;101773.02;1770682;81;21003;-69
2021/11/17 09:26:09;;;;;;;24.35;15.72;;;;;;;4.72;56.78;101766.16;1770480;81;20986;-69
2021/11/17 09:28:36;;;;;;;27.98;16.75;;;;;;;4.75;56.72;101759.17;1770636;81;21050;-69
2021/11/17 09:31:05;;;;;;;25.17;15.55;;;;;;;4.84;56.62;101754.58;1770361;81;21996;-68
2021/11/17 09:33:33;;;;;;;21.55;13.80;;;;;;;4.91;56.29;101754.95;1748718;79;21661;-70
2021/11/17 09:36:00;;;;;;;20.80;13.48;;;;;;;4.95;55.88;101748.77;1738347;81;21416;-69
2021/11/17 09:38:27;;;;;;;18.27;12.03;;;;;;;4.98;55.74;101744.41;1738432;81;21121;-69
2021/11/17 09:41:01;;;;;;;22.27;12.93;;;;;;;5.05;55.41;101737.85;1739399;81;21656;-69
2021/11/17 09:43:34;;;;;;;22.75;12.28;;;;;;;5.12;55.04;101738.72;1739627;81;21931;-70
2021/11/17 09:46:02;;;;;;;21.75;12.80;;;;;;;5.18;54.70;101732.66;1740000;81;20951;-70
2021/11/17 09:48:35;;;;;;;19.02;10.65;;;;;;;5.25;54.59;101725.58;1713183;81;21098;-69
2021/11/17 09:51:15;;;;;;;21.80;12.20;;;;;;;5.34;54.36;101719.13;1738843;81;21608;-70
2021/11/17 09:54:14;;;;;;;16.77;10.90;;;;;;;5.40;53.96;101722.33;1738244;81;21105;-69
2021/11/17 09:56:50;;;;;;;21.30;11.75;;;;;;;5.49;53.47;101720.84;1738447;81;21198;-70
2021/11/17 09:59:25;;;;;;;27.05;11.53;;;;;;;5.48;52.90;101720.53;1738426;81;21046;-69
2021/11/17 10:02:09;;;;;;;22.10;11.53;;;;;;;5.54;52.81;101710.48;1764604;81;21085;-69
2021/11/17 10:04:48;;;;;;;18.95;10.82;;;;;;;5.60;52.55;101704.41;1769082;81;21031;-69
2021/11/17 10:13:31;;;;;;;40.03;14.65;;;;;;;5.70;51.87;101695.59;1769103;81;21134;-69
2021/11/17 10:16:01;;;;;;;35.23;15.08;;;;;;;5.76;51.71;101700.59;1759048;79;21065;-69
2021/11/17 10:18:39;;;;;;;30.77;14.35;;;;;;;5.81;51.57;101704.80;1750953;79;21015;-69
2021/11/17 10:21:18;;;;;;;39.53;14.23;;;;;;;5.84;51.40;101705.23;1758393;79;21123;-68
2021/11/17 10:23:55;;;;;;;59.35;17.85;;;;;;;5.85;51.32;101700.23;1744752;79;21720;-68
2021/11/17 10:26:22;;;;;;;559.15;94.17;;;;;;;5.90;51.04;101698.84;1756817;79;21090;-68
2021/11/17 10:29:01;;;;;;;35.43;14.30;;;;;;;5.95;50.86;101696.43;1756995;81;21654;-67
2021/11/17 10:31:53;;;;;;;21.17;12.28;;;;;;;5.99;50.71;101694.53;1758738;79;20983;-69
2021/11/17 10:34:41;;;;;;;29.05;13.50;;;;;;;6.03;50.50;101690.45;1760893;81;21112;-67
2021/11/17 10:37:29;;;;;;;27.10;13.35;;;;;;;6.07;50.27;101691.69;1743725;81;21098;-68
2021/11/17 10:39:55;;;;;;;19.85;12.40;;;;;;;6.08;50.08;101678.72;1719436;81;21475;-68
2021/11/17 10:42:35;;;;;;;24.80;12.60;;;;;;;6.11;49.90;101678.84;1744266;81;21082;-69
2021/11/17 10:45:16;;;;;;;22.52;12.18;;;;;;;6.08;49.42;101676.07;1742117;81;21036;-68
2021/11/17 10:47:47;;;;;;;21.90;13.30;;;;;;;6.09;49.44;101679.05;1754078;81;21549;-67
2021/11/17 10:50:31;;;;;;;18.73;12.10;;;;;;;6.09;49.37;101680.89;1766617;81;21092;-67
2021/11/17 10:53:14;;;;;;;21.90;11.83;;;;;;;6.11;49.31;101674.86;1762074;81;20999;-67
2021/11/17 10:55:49;;;;;;;18.92;12.13;;;;;;;6.16;49.40;101671.11;1751909;79;21555;-67
2021/11/17 10:58:24;;;;;;;19.05;11.75;;;;;;;6.21;49.22;101659.89;1727952;81;21057;-67
2021/11/17 11:00:58;;;;;;;22.30;12.78;;;;;;;6.25;48.89;101655.81;1745800;81;21029;-68
2021/11/17 11:03:30;;;;;;;23.40;13.30;;;;;;;6.27;48.83;101656.44;1748431;81;21138;-68
2021/11/17 11:06:17;;;;;;;17.85;10.70;;;;;;;6.26;48.85;101647.66;1758141;81;21537;-68
2021/11/17 11:09:12;;;;;;;21.20;12.25;;;;;;;6.26;48.49;101642.88;1742551;81;21039;-68
2021/11/17 11:11:44;;;;;;;19.73;11.73;;;;;;;6.21;48.54;101639.99;1749192;81;21084;-68
2021/11/17 11:14:19;;;;;;;17.82;10.58;;;;;;;6.20;48.32;101636.52;1757709;81;21130;-68
2021/11/17 11:16:51;;;;;;;19.50;11.88;;;;;;;6.22;48.33;101635.83;1754518;81;21099;-67
2021/11/17 11:19:26;;;;;;;20.45;11.28;;;;;;;6.24;48.25;101628.98;1751436;81;21042;-68
2021/11/17 11:22:04;;;;;;;18.50;10.75;;;;;;;6.21;48.07;101623.56;1742718;81;21047;-67
2021/11/17 11:24:41;;;;;;;22.07;11.85;;;;;;;6.21;47.79;101618.77;1735608;81;21183;-68
2021/11/17 11:27:18;;;;;;;19.07;10.65;;;;;;;6.17;47.88;101610.91;1767431;81;21099;-67
2021/11/17 11:30:06;;;;;;;18.90;11.10;;;;;;;6.18;47.59;101612.02;1753373;79;21152;-68
2021/11/17 11:32:41;;;;;;;17.80;10.93;;;;;;;6.18;47.66;101610.70;1750337;79;21070;-68
2021/11/17 11:35:13;;;;;;;20.90;12.10;;;;;;;6.17;47.63;101610.91;1724160;81;21015;-68
2021/11/17 11:37:49;;;;;;;20.40;11.35;;;;;;;6.17;47.72;101602.95;1751148;80;21152;-68
2021/11/17 11:40:24;;;;;;;19.48;10.38;;;;;;;6.19;47.69;101616.84;1764310;81;21560;-69
2021/11/17 11:43:17;;;;;;;18.12;11.35;;;;;;;6.19;47.70;101611.54;1754291;81;21097;-70
2021/11/17 11:45:47;;;;;;;20.88;11.48;;;;;;;6.18;47.53;101614.67;1756095;81;21513;-69
2021/11/17 11:48:28;;;;;;;20.15;12.55;;;;;;;6.15;47.34;101602.33;1756906;81;21022;-69
2021/11/17 11:51:06;;;;;;;18.23;11.63;;;;;;;6.12;47.15;101598.27;1754296;81;21057;-68
2021/11/17 11:54:10;;;;;;;20.60;12.15;;;;;;;6.08;47.10;101600.99;1751765;81;21120;-70
2021/11/17 11:56:43;;;;;;;19.27;12.00;;;;;;;6.05;47.24;101601.39;1748993;81;21966;-68
2021/11/17 11:59:15;;;;;;;19.07;12.50;;;;;;;6.01;47.20;101597.52;1747389;81;20991;-68
2021/11/17 12:01:44;;;;;;;20.50;12.47;;;;;;;5.87;47.38;101597.45;1754601;81;21047;-69
2021/11/17 12:04:21;;;;;;;20.32;12.40;;;;;;;5.85;47.56;101590.20;1753270;81;21007;-69
2021/11/17 12:06:59;;;;;;;21.30;12.78;;;;;;;5.88;47.55;101589.80;1757172;81;21026;-69
2021/11/17 12:09:33;;;;;;;22.15;12.37;;;;;;;5.92;47.51;101589.40;1749391;81;21616;-69
2021/11/17 12:12:08;;;;;;;20.12;12.68;;;;;;;5.95;47.37;101587.19;1748551;79;22451;-68
2021/11/17 12:14:47;;;;;;;22.87;12.50;;;;;;;5.97;47.26;101579.05;1749948;79;21117;-69
2021/11/17 12:17:29;;;;;;;21.27;11.18;;;;;;;5.96;47.15;101578.23;1754911;79;21500;-69
2021/11/17 12:19:59;;;;;;;23.15;13.22;;;;;;;5.93;47.11;101574.66;1755610;81;20995;-69
2021/11/17 12:22:46;;;;;;;21.17;12.25;;;;;;;5.86;47.07;101571.97;1748889;79;21114;-69
2021/11/17 12:25:23;;;;;;;18.23;12.05;;;;;;;5.83;46.97;101569.71;1746952;81;21502;-68
2021/11/17 12:27:58;;;;;;;21.25;12.40;;;;;;;5.80;47.01;101572.77;1754140;79;21094;-68
2021/11/17 12:30:50;;;;;;;17.75;11.83;;;;;;;5.80;46.87;101579.39;1749855;81;21049;-69
2021/11/17 12:33:25;;;;;;;21.93;12.45;;;;;;;5.81;46.75;101578.36;1747997;80;21041;-68
2021/11/17 12:36:07;;;;;;;18.80;12.10;;;;;;;5.75;46.70;101567.23;1747180;79;21754;-69
2021/11/17 12:38:35;;;;;;;22.48;13.50;;;;;;;5.73;46.70;101567.14;1773703;79;21668;-68
2021/11/17 12:41:14;;;;;;;19.35;11.33;;;;;;;5.72;46.69;101566.30;1747601;81;21066;-68
2021/11/17 12:43:46;;;;;;;18.42;11.33;;;;;;;5.74;46.69;101576.72;1745176;81;21086;-69
2021/11/17 12:46:22;;;;;;;20.35;11.68;;;;;;;5.67;46.41;101569.27;1748024;81;21109;-69
2021/11/17 12:48:56;;;;;;;22.75;12.60;;;;;;;5.56;46.57;101567.98;1755488;81;21068;-69
2021/11/17 12:51:28;;;;;;;22.42;12.43;;;;;;;5.54;46.69;101566.06;1753042;81;21036;-68
2021/11/17 12:54:08;;;;;;;18.02;11.15;;;;;;;5.53;46.65;101566.57;1756192;81;21101;-69
2021/11/17 12:56:49;;;;;;;25.00;13.10;;;;;;;5.53;46.55;101575.03;1751243;81;21054;-68
2021/11/17 12:59:28;;;;;;;28.67;12.43;;;;;;;5.48;46.64;101566.33;1733051;80;21099;-69
2021/11/17 13:02:00;;;;;;;21.02;12.40;;;;;;;5.49;46.66;101567.15;1689909;82;21178;-68
2021/11/17 13:04:33;;;;;;;19.17;11.38;;;;;;;5.47;46.57;101567.88;1748615;79;21042;-69
2021/11/17 13:07:07;;;;;;;23.35;11.70;;;;;;;5.42;46.45;101560.50;1755285;81;21038;-70
2021/11/17 13:09:46;;;;;;;25.57;12.60;;;;;;;5.37;46.36;101562.42;1748075;81;21154;-68
2021/11/17 13:12:21;;;;;;;23.57;12.37;;;;;;;5.29;46.21;101559.93;1744743;81;21002;-69
2021/11/17 13:14:53;;;;;;;20.25;11.75;;;;;;;5.26;46.28;101559.00;1756487;81;21520;-69
2021/11/17 13:17:24;;;;;;;24.27;12.43;;;;;;;5.22;46.24;101559.09;1754780;81;21117;-69
2021/11/17 13:19:58;;;;;;;25.48;12.00;;;;;;;5.18;46.09;101562.64;1752593;81;20964;-69
2021/11/17 13:22:39;;;;;;;21.80;10.98;;;;;;;5.13;46.12;101556.28;1751162;81;20999;-69
2021/11/17 13:25:19;;;;;;;16.85;10.15;;;;;;;5.08;46.28;101555.56;1743505;81;21066;-70
2021/11/17 13:28:02;;;;;;;20.08;12.18;;;;;;;5.04;46.41;101561.45;1758182;81;21243;-70
2021/11/17 13:30:36;;;;;;;16.52;10.72;;;;;;;4.94;46.48;101563.95;1742421;81;21636;-69
2021/11/17 13:33:29;;;;;;;18.10;11.65;;;;;;;4.87;46.59;101562.25;1746970;80;21097;-69
2021/11/17 13:36:10;;;;;;;18.15;12.25;;;;;;;4.81;46.72;101560.41;1738001;82;21523;-69
2021/11/17 13:38:39;;;;;;;18.52;11.40;;;;;;;4.73;46.89;101560.54;1762962;80;21051;-68
2021/11/17 13:41:09;;;;;;;19.20;11.75;;;;;;;4.65;46.98;101561.01;1726304;82;21808;-68
2021/11/17 13:43:38;;;;;;;17.98;12.47;;;;;;;4.56;47.07;101556.05;1746482;81;21009;-68
2021/11/17 13:46:08;;;;;;;18.00;11.90;;;;;;;4.43;47.30;101553.61;1762059;80;21061;-68
2021/11/17 13:48:38;;;;;;;22.93;12.05;;;;;;;4.37;47.46;101555.69;1757568;79;21490;-69
2021/11/17 13:51:06;;;;;;;19.80;12.58;;;;;;;4.32;47.62;101556.78;1755104;79;21065;-69
2021/11/17 13:53:32;;;;;;;18.23;12.10;;;;;;;4.28;47.80;101557.34;1758128;81;21031;-68
2021/11/17 13:56:05;;;;;;;18.35;11.53;;;;;;;4.21;47.98;101551.52;1753030;81;21489;-69
2021/11/17 13:58:32;;;;;;;17.62;11.80;;;;;;;4.12;48.18;101551.84;1752238;79;21058;-70
2021/11/17 14:01:00;;;;;;;19.32;12.03;;;;;;;4.05;48.43;101548.29;1753928;81;21003;-70
2021/11/17 14:03:31;;;;;;;19.92;11.93;;;;;;;3.97;48.60;101550.05;1750017;81;21002;-68
2021/11/17 14:06:02;;;;;;;17.42;11.38;;;;;;;3.89;48.75;101543.59;1768397;81;21136;-69
2021/11/17 14:08:29;;;;;;;17.85;11.15;;;;;;;3.86;48.84;101541.83;1728031;81;21031;-68
2021/11/17 14:10:55;;;;;;;21.65;12.75;;;;;;;3.79;48.99;101547.05;1760401;81;20919;-69
2021/11/17 14:13:25;;;;;;;18.70;11.73;;;;;;;3.64;49.12;101539.66;1767006;80;21526;-68
2021/11/17 14:15:51;;;;;;;18.62;12.23;;;;;;;3.55;49.27;101544.22;1752222;81;21592;-69
2021/11/17 14:18:20;;;;;;;19.82;12.68;;;;;;;3.40;49.47;101544.27;1762906;81;22113;-69
2021/11/17 14:20:47;;;;;;;19.98;12.63;;;;;;;3.30;49.69;101543.75;1752800;79;21814;-69
2021/11/17 14:23:15;;;;;;;20.82;13.40;;;;;;;3.23;49.85;101540.21;1743550;79;21270;-69
2021/11/17 14:25:44;;;;;;;19.80;12.95;;;;;;;3.12;50.02;101534.06;1756973;81;21003;-68
2021/11/17 14:28:21;;;;;;;20.72;13.22;;;;;;;3.04;50.22;101542.40;1742000;81;20994;-68
2021/11/17 14:30:59;;;;;;;20.32;12.95;;;;;;;2.96;50.48;101533.27;1760414;81;21220;-68
2021/11/17 14:33:31;;;;;;;27.05;13.45;;;;;;;2.87;50.67;101533.04;1762291;81;21538;-69